Time;durP1;ratioP1;P1;durP2;ratioP2;P2;SDS_P1;SDS_P2;PMS_P1;PMS_P2;Temp;Humidity;BMP_temperature;BMP_pressure;BME280_temperature;BME280_humidity;BME280_pressure;Samples;Min_cycle;Max_cycle;Signal;HPM_P1;HPM_P2
2023/02/23 00:02:07;;;;;;;23.90;11.33;;;;;;;3.21;100.00;100751.69;5021901;28;20049;-79
2023/02/23 00:04:37;;;;;;;18.77;10.27;;;;;;;3.28;100.00;100758.72;4986492;28;20050;-82
2023/02/23 00:07:07;;;;;;;16.93;10.43;;;;;;;3.38;100.00;100759.69;5000580;28;20044;-80
2023/02/23 00:09:34;;;;;;;18.63;10.23;;;;;;;3.30;100.00;100754.38;4995303;28;20042;-81
2023/02/23 00:12:06;;;;;;;18.67;10.30;;;;;;;3.20;100.00;100747.31;4994387;28;20045;-79
2023/02/23 00:14:36;;;;;;;18.47;10.13;;;;;;;3.05;100.00;100748.00;5014619;28;20136;-80
2023/02/23 00:17:04;;;;;;;17.37;9.67;;;;;;;3.07;100.00;100742.81;5028091;28;20045;-81
2023/02/23 00:19:32;;;;;;;20.10;9.97;;;;;;;3.19;100.00;100737.72;5008986;28;20037;-81
2023/02/23 00:21:59;;;;;;;16.17;9.77;;;;;;;3.09;100.00;100739.34;5008335;28;20076;-81
2023/02/23 00:24:26;;;;;;;22.30;10.03;;;;;;;3.16;100.00;100734.19;5047188;28;20037;-81
2023/02/23 00:26:56;;;;;;;20.57;10.90;;;;;;;3.09;100.00;100728.03;5011353;28;20250;-82
2023/02/23 00:29:23;;;;;;;19.97;10.07;;;;;;;3.14;100.00;100736.81;4994372;28;20041;-81
2023/02/23 00:31:54;;;;;;;23.30;10.57;;;;;;;3.12;100.00;100722.88;4998494;28;20566;-81
2023/02/23 00:34:22;;;;;;;26.93;11.70;;;;;;;3.10;100.00;100727.16;4996984;28;20041;-83
2023/02/23 00:36:53;;;;;;;17.50;9.43;;;;;;;3.06;100.00;100726.28;5013090;28;20046;-81
2023/02/23 00:39:27;;;;;;;22.33;10.43;;;;;;;3.16;100.00;100723.75;5024124;28;20482;-81
2023/02/23 00:41:55;;;;;;;25.50;10.93;;;;;;;3.09;100.00;100726.28;4996266;28;20038;-81
2023/02/23 00:44:23;;;;;;;18.97;10.33;;;;;;;3.00;100.00;100725.31;4994961;28;20091;-80
2023/02/23 00:46:53;;;;;;;22.10;11.30;;;;;;;3.08;100.00;100724.53;4993679;28;20044;-81
2023/02/23 00:49:22;;;;;;;19.10;11.30;;;;;;;3.07;100.00;100721.94;5030122;28;20033;-81
2023/02/23 00:51:48;;;;;;;19.27;9.60;;;;;;;3.08;100.00;100718.44;5021519;28;20041;-81
2023/02/23 00:54:17;;;;;;;22.90;9.93;;;;;;;2.97;100.00;100720.97;4994170;28;20104;-81
2023/02/23 00:56:44;;;;;;;20.43;10.70;;;;;;;3.10;100.00;100722.81;5021920;28;20490;-81
2023/02/23 00:59:12;;;;;;;24.43;10.77;;;;;;;2.98;100.00;100725.31;4984825;28;20038;-81
2023/02/23 01:01:42;;;;;;;18.60;9.83;;;;;;;3.12;100.00;100727.22;5010031;28;20447;-81
2023/02/23 01:04:11;;;;;;;17.17;8.90;;;;;;;3.07;100.00;100724.53;4992884;28;20045;-82
2023/02/23 01:06:40;;;;;;;22.93;9.70;;;;;;;2.99;100.00;100718.34;5009129;28;20054;-82
2023/02/23 01:09:27;;;;;;;22.17;11.03;;;;;;;2.98;100.00;100725.31;4981752;28;20040;-82
2023/02/23 01:11:55;;;;;;;19.27;10.03;;;;;;;2.94;100.00;100720.91;5018941;28;20037;-81
2023/02/23 01:14:22;;;;;;;22.53;10.03;;;;;;;3.04;100.00;100720.16;5027609;28;20041;-81
2023/02/23 01:16:51;;;;;;;15.90;9.43;;;;;;;3.00;100.00;100715.75;4997269;28;20045;-80
2023/02/23 01:19:18;;;;;;;22.20;10.93;;;;;;;3.00;100.00;100723.59;4996279;28;20045;-81
2023/02/23 01:21:45;;;;;;;21.27;9.83;;;;;;;2.88;100.00;100722.59;5028156;28;20038;-82
2023/02/23 01:24:11;;;;;;;20.20;9.13;;;;;;;2.94;100.00;100720.91;4995745;28;20046;-79
2023/02/23 01:26:41;;;;;;;21.53;11.53;;;;;;;2.91;100.00;100720.00;5023676;28;20049;-81
2023/02/23 01:29:10;;;;;;;20.73;10.33;;;;;;;2.87;100.00;100731.28;5012904;28;20052;-80
2023/02/23 01:31:42;;;;;;;22.20;10.63;;;;;;;2.86;100.00;100708.63;5013349;28;20033;-81
2023/02/23 01:34:16;;;;;;;20.53;10.60;;;;;;;2.83;100.00;100702.53;4995705;28;20042;-81
2023/02/23 01:36:44;;;;;;;22.00;11.13;;;;;;;2.82;100.00;100705.13;4993378;28;20041;-80
2023/02/23 01:39:14;;;;;;;19.37;10.33;;;;;;;2.60;100.00;100706.56;4999942;28;20034;-81
2023/02/23 01:41:41;;;;;;;20.00;11.30;;;;;;;2.62;100.00;100704.88;5011933;28;20042;-80
2023/02/23 01:44:14;;;;;;;22.70;11.37;;;;;;;2.71;100.00;100694.56;5010961;28;20046;-81
2023/02/23 01:46:44;;;;;;;21.98;10.45;;;;;;;2.66;100.00;100695.34;5019784;28;20437;-81
2023/02/23 01:49:18;;;;;;;23.73;11.13;;;;;;;2.68;100.00;100693.63;5027791;28;20033;-83
2023/02/23 01:51:49;;;;;;;24.17;10.40;;;;;;;2.57;100.00;100690.91;5036893;23;20069;-81
2023/02/23 01:54:19;;;;;;;24.00;11.30;;;;;;;2.50;100.00;100686.47;4993927;28;20080;-81
2023/02/23 01:56:49;;;;;;;24.97;12.70;;;;;;;2.55;100.00;100682.19;4979671;28;20042;-81
2023/02/23 01:59:16;;;;;;;18.97;10.60;;;;;;;2.58;100.00;100684.81;4993359;28;20034;-80
2023/02/23 02:01:44;;;;;;;23.33;10.97;;;;;;;2.63;100.00;100680.56;4982593;28;20092;-80
2023/02/23 02:04:15;;;;;;;21.80;11.37;;;;;;;2.57;100.00;100683.06;5014186;28;20121;-80
2023/02/23 02:06:47;;;;;;;22.60;10.73;;;;;;;2.52;100.00;100676.91;5012523;28;20156;-80
2023/02/23 02:09:16;;;;;;;19.50;10.77;;;;;;;2.49;100.00;100671.69;5011986;28;20038;-81
2023/02/23 02:11:45;;;;;;;21.30;11.50;;;;;;;2.51;100.00;100667.34;5006655;28;20045;-80
2023/02/23 02:14:17;;;;;;;22.53;11.43;;;;;;;2.53;100.00;100666.53;4977958;28;20054;-80
2023/02/23 02:17:05;;;;;;;19.23;10.80;;;;;;;2.43;100.00;100666.38;5014529;28;20038;-80
2023/02/23 02:20:13;;;;;;;23.23;10.80;;;;;;;2.41;100.00;100665.50;4994806;28;20045;-81
2023/02/23 02:23:01;;;;;;;21.13;11.03;;;;;;;2.43;100.00;100663.78;5026233;28;20050;-80
2023/02/23 02:26:08;;;;;;;22.00;10.70;;;;;;;2.51;100.00;100651.69;5007852;28;20038;-80
2023/02/23 02:28:41;;;;;;;20.27;10.37;;;;;;;2.36;100.00;100662.84;4976059;28;20088;-80
2023/02/23 02:31:29;;;;;;;21.87;11.73;;;;;;;2.34;100.00;100659.31;5011453;28;20049;-81
2023/02/23 02:34:21;;;;;;;20.20;10.43;;;;;;;2.28;100.00;100663.59;5009051;28;20096;-81
2023/02/23 02:37:28;;;;;;;21.67;10.53;;;;;;;2.36;100.00;100656.75;4975871;28;20566;-80
2023/02/23 02:40:20;;;;;;;21.23;11.10;;;;;;;2.35;100.00;100655.84;4976868;28;20069;-81
2023/02/23 02:43:16;;;;;;;22.77;11.20;;;;;;;2.35;100.00;100654.97;5010940;28;20481;-80
2023/02/23 02:46:17;;;;;;;21.27;10.07;;;;;;;2.34;100.00;100648.88;4984857;28;20434;-80
2023/02/23 02:48:51;;;;;;;20.70;11.07;;;;;;;2.31;100.00;100650.59;4992717;28;20059;-80
2023/02/23 02:51:22;;;;;;;24.85;10.15;;;;;;;2.18;100.00;100640.00;4978366;28;20052;-80
2023/02/23 02:54:05;;;;;;;17.97;9.80;;;;;;;2.15;100.00;100631.25;5028219;28;20104;-80
2023/02/23 02:56:39;;;;;;;22.43;11.10;;;;;;;2.09;100.00;100637.25;5015784;28;20061;-80
2023/02/23 04:19:54;;;;;;;24.00;12.33;;;;;;;1.57;100.00;100583.56;4988096;28;20046;-80
2023/02/23 04:22:22;;;;;;;23.47;11.73;;;;;;;1.55;100.00;100580.94;4991772;28;20042;-81
2023/02/23 04:24:49;;;;;;;22.50;11.27;;;;;;;1.54;100.00;100580.94;4976939;28;20049;-81
2023/02/23 04:27:16;;;;;;;25.97;12.23;;;;;;;1.38;100.00;100587.63;5007715;28;20061;-80
2023/02/23 04:29:43;;;;;;;23.17;11.87;;;;;;;1.41;100.00;100579.84;4990121;28;20042;-80
2023/02/23 04:32:14;;;;;;;22.67;12.10;;;;;;;1.53;100.00;100589.59;5008487;28;20461;-80
2023/02/23 04:34:42;;;;;;;25.47;11.90;;;;;;;1.41;100.00;100587.66;4977271;28;20209;-81
2023/02/23 04:37:08;;;;;;;27.57;13.47;;;;;;;1.32;100.00;100592.72;4993220;28;20553;-81
2023/02/23 04:39:35;;;;;;;24.93;13.73;;;;;;;1.32;100.00;100587.53;5010417;28;20391;-81
2023/02/23 04:42:02;;;;;;;22.83;11.70;;;;;;;1.34;100.00;100583.22;4993473;28;20053;-81
2023/02/23 04:44:29;;;;;;;23.77;11.70;;;;;;;1.29;100.00;100590.97;4977750;28;20046;-81
2023/02/23 04:46:56;;;;;;;24.43;12.57;;;;;;;1.17;100.00;100582.94;4977245;28;20046;-80
2023/02/23 04:49:23;;;;;;;24.20;12.03;;;;;;;1.41;100.00;100590.25;4998444;28;20038;-81
2023/02/23 04:51:49;;;;;;;21.20;10.63;;;;;;;1.08;100.00;100581.06;4992663;28;20042;-81
2023/02/23 04:54:17;;;;;;;25.57;12.67;;;;;;;1.09;100.00;100585.44;5009510;28;20111;-81
2023/02/23 04:56:43;;;;;;;21.77;11.20;;;;;;;1.17;100.00;100592.47;4991946;28;20603;-81
2023/02/23 04:59:10;;;;;;;25.40;12.07;;;;;;;1.07;100.00;100589.72;4976995;28;20048;-81
2023/02/23 05:01:37;;;;;;;26.70;12.93;;;;;;;0.89;100.00;100592.00;4977009;28;20045;-80
2023/02/23 05:04:03;;;;;;;25.70;11.93;;;;;;;0.89;100.00;100591.16;4992241;28;20475;-81
2023/02/23 05:06:31;;;;;;;25.00;11.93;;;;;;;0.83;100.00;100592.78;4975963;28;20037;-80
2023/02/23 05:08:58;;;;;;;21.80;10.83;;;;;;;0.84;100.00;100586.75;5003162;28;20046;-80
2023/02/23 05:11:26;;;;;;;19.80;11.13;;;;;;;0.69;100.00;100596.00;5008034;28;20038;-80
2023/02/23 05:13:53;;;;;;;20.70;10.97;;;;;;;0.65;100.00;100589.84;4993327;28;20056;-80
2023/02/23 05:16:20;;;;;;;22.13;11.53;;;;;;;0.76;100.00;100590.06;4993924;28;20100;-80
2023/02/23 05:18:47;;;;;;;19.53;11.57;;;;;;;0.67;100.00;100588.16;4975393;28;20053;-81
2023/02/23 05:21:13;;;;;;;24.27;12.97;;;;;;;0.64;100.00;100589.81;4991564;28;20458;-81
2023/02/23 05:23:40;;;;;;;24.00;11.87;;;;;;;0.59;100.00;100591.44;4976484;28;20049;-81
2023/02/23 05:26:09;;;;;;;22.57;11.73;;;;;;;0.55;100.00;100588.81;4976648;28;20507;-81
2023/02/23 05:28:37;;;;;;;23.50;11.50;;;;;;;0.52;100.00;100591.34;4978965;28;20049;-82
2023/02/23 05:31:04;;;;;;;22.57;12.10;;;;;;;0.70;100.00;100589.94;4979593;28;20088;-81
2023/02/23 05:33:32;;;;;;;24.73;11.33;;;;;;;0.54;100.00;100588.78;4980064;28;20048;-82
2023/02/23 05:35:58;;;;;;;25.20;11.90;;;;;;;0.60;100.00;100577.63;4996218;28;20134;-82
2023/02/23 05:38:26;;;;;;;21.37;10.60;;;;;;;0.49;100.00;100583.47;5012704;28;20048;-81
2023/02/23 05:40:52;;;;;;;20.33;11.53;;;;;;;0.56;100.00;100580.16;4996192;28;20050;-82
2023/02/23 05:43:19;;;;;;;20.77;11.77;;;;;;;0.40;100.00;100579.84;4995762;28;20073;-82
2023/02/23 05:45:46;;;;;;;21.27;10.80;;;;;;;0.50;100.00;100572.22;4979261;28;20044;-82
2023/02/23 05:48:12;;;;;;;23.17;11.73;;;;;;;0.50;100.00;100580.03;4979970;28;20050;-81
2023/02/23 05:50:39;;;;;;;20.60;11.30;;;;;;;0.61;100.00;100574.19;4990071;28;20049;-82
2023/02/23 05:53:06;;;;;;;21.60;11.40;;;;;;;0.37;100.00;100578.06;4992988;28;20043;-82
2023/02/23 05:55:32;;;;;;;32.73;13.37;;;;;;;0.43;100.00;100572.13;4976923;28;20042;-82
2023/02/23 05:57:59;;;;;;;22.03;11.87;;;;;;;0.24;100.00;100573.47;5011206;28;20137;-82
2023/02/23 06:00:26;;;;;;;27.67;12.63;;;;;;;0.31;100.00;100574.47;5012256;28;20034;-82
2023/02/23 06:02:53;;;;;;;24.63;12.27;;;;;;;0.39;100.00;100578.09;5012805;28;20554;-83
2023/02/23 06:05:19;;;;;;;23.30;11.87;;;;;;;0.40;100.00;100583.31;4979977;28;20076;-81
2023/02/23 06:07:46;;;;;;;21.87;12.43;;;;;;;0.35;100.00;100577.16;4995828;28;20165;-81
2023/02/23 06:10:16;;;;;;;25.40;13.97;;;;;;;0.35;100.00;100584.09;5011865;28;20112;-82
2023/02/23 06:12:42;;;;;;;25.23;12.40;;;;;;;0.36;100.00;100581.50;4996037;28;20423;-82
2023/02/23 06:15:09;;;;;;;25.93;12.23;;;;;;;0.38;100.00;100587.59;4996093;28;20042;-81
2023/02/23 06:17:36;;;;;;;29.80;14.47;;;;;;;0.25;100.00;100575.22;5027824;28;20565;-82
2023/02/23 06:20:05;;;;;;;23.07;12.17;;;;;;;0.31;100.00;100583.13;4994388;28;20042;-81
2023/02/23 06:22:32;;;;;;;26.13;12.87;;;;;;;0.40;100.00;100583.31;4992659;28;20042;-81
2023/02/23 06:24:59;;;;;;;26.60;13.87;;;;;;;0.33;100.00;100583.16;4979172;28;20042;-82
2023/02/23 06:27:25;;;;;;;23.33;11.70;;;;;;;0.29;100.00;100582.22;4994748;28;20100;-81
2023/02/23 06:29:52;;;;;;;25.23;12.97;;;;;;;0.40;100.00;100582.44;4991955;28;20459;-83
2023/02/23 06:32:19;;;;;;;30.37;14.10;;;;;;;0.43;100.00;100583.38;5008050;28;20038;-82
2023/02/23 06:34:45;;;;;;;22.50;11.93;;;;;;;0.55;100.00;100586.22;4975622;28;20454;-82
2023/02/23 06:37:12;;;;;;;28.17;13.90;;;;;;;0.64;100.00;100585.50;4991971;28;20046;-82
2023/02/23 06:39:39;;;;;;;27.47;13.70;;;;;;;0.45;100.00;100588.59;4993630;28;20096;-82
2023/02/23 06:42:05;;;;;;;24.47;13.20;;;;;;;0.60;100.00;100590.63;4999713;28;20049;-82
2023/02/23 06:44:34;;;;;;;25.40;12.07;;;;;;;0.67;100.00;100589.88;5011398;28;20415;-82
2023/02/23 06:47:04;;;;;;;28.87;13.33;;;;;;;0.64;100.00;100602.81;4981189;28;20042;-82
2023/02/23 06:49:31;;;;;;;29.40;13.67;;;;;;;0.66;100.00;100593.31;4987007;28;20498;-82
2023/02/23 06:51:58;;;;;;;27.77;14.33;;;;;;;0.54;100.00;100588.78;5020068;28;20046;-82
2023/02/23 06:54:25;;;;;;;28.20;13.50;;;;;;;0.73;100.00;100598.66;5012199;28;20050;-82
2023/02/23 06:56:52;;;;;;;23.93;13.70;;;;;;;0.65;100.00;100597.66;5011809;28;20447;-82
2023/02/23 06:59:19;;;;;;;27.87;13.03;;;;;;;0.68;100.00;100602.06;4995458;28;20030;-82
2023/02/23 07:01:45;;;;;;;34.37;13.50;;;;;;;0.72;100.00;100604.72;5011659;28;20045;-82
2023/02/23 07:04:12;;;;;;;24.73;13.67;;;;;;;0.78;100.00;100603.97;4979353;28;20487;-82
2023/02/23 07:06:42;;;;;;;28.10;13.47;;;;;;;0.76;100.00;100609.13;5010788;28;20046;-82
2023/02/23 07:09:09;;;;;;;21.60;12.10;;;;;;;0.79;100.00;100600.50;4995476;28;20100;-82
2023/02/23 07:11:35;;;;;;;27.00;13.20;;;;;;;0.90;100.00;100601.56;4994999;28;20042;-82
2023/02/23 07:14:02;;;;;;;31.47;15.03;;;;;;;0.97;100.00;100595.63;5000644;28;20045;-82
2023/02/23 07:16:29;;;;;;;26.07;12.50;;;;;;;1.01;100.00;100602.66;5004588;28;20103;-82
2023/02/23 07:18:55;;;;;;;25.20;12.60;;;;;;;1.26;100.00;100603.03;5007896;28;20053;-83
2023/02/23 07:21:22;;;;;;;30.40;15.07;;;;;;;1.32;100.00;100590.13;5001373;28;20042;-82
2023/02/23 07:23:49;;;;;;;32.23;15.47;;;;;;;1.38;100.00;100600.66;4978623;28;20096;-81
2023/02/23 07:26:18;;;;;;;22.17;13.30;;;;;;;1.56;100.00;100603.53;5009180;28;20045;-81
2023/02/23 07:28:45;;;;;;;26.93;14.37;;;;;;;1.76;100.00;100593.38;5020643;28;20100;-82
2023/02/23 07:31:13;;;;;;;24.23;13.40;;;;;;;1.74;100.00;100602.03;4995054;28;20117;-81
2023/02/23 07:33:40;;;;;;;25.83;14.23;;;;;;;1.80;100.00;100597.78;5012296;28;20061;-81
2023/02/23 07:36:07;;;;;;;29.83;13.53;;;;;;;2.00;100.00;100595.44;4984366;28;20046;-82
2023/02/23 07:38:34;;;;;;;25.17;13.70;;;;;;;1.97;100.00;100585.88;4999793;28;20042;-82
2023/02/23 07:41:01;;;;;;;24.07;13.33;;;;;;;2.07;100.00;100589.47;4997315;28;20479;-83
2023/02/23 07:43:28;;;;;;;28.17;14.50;;;;;;;2.27;100.00;100589.75;4994378;28;20046;-82
2023/02/23 07:46:08;;;;;;;27.10;13.73;;;;;;;2.31;100.00;100593.25;5002595;28;20102;-83
2023/02/23 07:48:35;;;;;;;28.13;13.73;;;;;;;2.36;100.00;100588.97;4995556;28;20172;-82
2023/02/23 07:51:07;;;;;;;29.20;14.47;;;;;;;2.25;100.00;100589.69;5003809;28;20557;-83
2023/02/23 07:53:35;;;;;;;30.85;13.93;;;;;;;2.20;100.00;100582.69;5062132;23;20036;-93
2023/02/23 07:56:03;;;;;;;25.70;12.57;;;;;;;2.42;100.00;100586.41;5036518;28;20046;-93
2023/02/23 07:58:30;;;;;;;24.23;12.53;;;;;;;2.44;100.00;100585.59;5056618;28;20029;-93
2023/02/23 08:00:57;;;;;;;23.47;13.33;;;;;;;2.45;100.00;100591.69;5023275;28;20036;-95
2023/02/23 08:03:26;;;;;;;25.70;13.17;;;;;;;2.49;100.00;100589.09;5031665;28;20030;-94
2023/02/23 08:05:53;;;;;;;22.57;13.63;;;;;;;2.58;100.00;100580.50;5019816;28;20053;-93
2023/02/23 08:08:20;;;;;;;27.83;14.67;;;;;;;2.82;100.00;100588.59;5016296;28;20025;-93
2023/02/23 08:10:49;;;;;;;28.50;14.27;;;;;;;2.89;100.00;100583.44;5032800;28;20074;-94
2023/02/23 08:13:16;;;;;;;26.17;13.60;;;;;;;2.87;100.00;100580.81;5015552;28;20022;-94
2023/02/23 08:15:48;;;;;;;25.97;13.73;;;;;;;2.93;100.00;100579.97;5032027;28;20019;-93
2023/02/23 08:18:25;;;;;;;27.53;14.20;;;;;;;3.05;100.00;100573.16;5019435;28;20034;-93
2023/02/23 08:21:02;;;;;;;26.83;14.53;;;;;;;3.12;100.00;100573.22;5005373;28;20034;-93
2023/02/23 08:23:31;;;;;;;25.27;12.83;;;;;;;3.28;100.00;100570.72;5020308;28;20085;-93
2023/02/23 08:25:58;;;;;;;28.57;12.77;;;;;;;3.34;100.00;100565.53;5016258;28;20034;-93
2023/02/23 08:28:27;;;;;;;26.40;14.10;;;;;;;3.56;100.00;100563.94;4990940;28;20026;-95
2023/02/23 08:30:56;;;;;;;28.47;13.80;;;;;;;3.78;100.00;100561.44;5047705;28;20038;-95
2023/02/23 08:33:23;;;;;;;24.33;12.63;;;;;;;3.77;100.00;100559.72;5018437;28;20033;-95
2023/02/23 08:35:58;;;;;;;31.00;14.50;;;;;;;3.93;100.00;100556.31;5014333;28;20057;-94
2023/02/23 08:38:26;;;;;;;28.60;14.07;;;;;;;4.03;100.00;100558.09;5014052;28;20102;-94
2023/02/23 08:41:14;;;;;;;24.30;13.63;;;;;;;4.12;100.00;100555.53;5027874;28;20053;-95
2023/02/23 08:43:50;;;;;;;22.63;12.73;;;;;;;4.17;100.00;100553.81;5035050;28;20052;-95
2023/02/23 08:46:19;;;;;;;26.70;15.03;;;;;;;4.32;100.00;100555.59;5045585;28;20022;-93
2023/02/23 08:48:49;;;;;;;24.40;13.43;;;;;;;4.38;100.00;100555.63;5015534;28;20029;-94
2023/02/23 08:51:16;;;;;;;27.23;14.10;;;;;;;4.50;100.00;100547.81;5028373;28;20049;-93
2023/02/23 08:53:51;;;;;;;22.90;13.53;;;;;;;4.60;100.00;100547.81;5019127;28;20036;-93
2023/02/23 08:56:18;;;;;;;28.17;14.53;;;;;;;4.65;100.00;100546.97;5020051;28;20026;-93
2023/02/23 08:58:45;;;;;;;22.97;13.33;;;;;;;4.75;100.00;100553.09;5001737;28;20022;-94
2023/02/23 09:01:20;;;;;;;24.33;13.13;;;;;;;4.90;100.00;100541.78;5050202;28;20094;-93
2023/02/23 09:03:47;;;;;;;28.40;16.17;;;;;;;5.00;100.00;100547.00;5038230;28;20041;-96
2023/02/23 09:06:24;;;;;;;29.17;14.80;;;;;;;5.04;100.00;100543.53;5014056;28;20038;-95
2023/02/23 09:08:59;;;;;;;26.63;14.48;;;;;;;5.22;100.00;100541.78;5031061;28;20029;-93
2023/02/23 09:11:27;;;;;;;28.57;15.83;;;;;;;5.31;100.00;100537.41;5018916;28;20026;-95
2023/02/23 09:13:54;;;;;;;22.50;13.27;;;;;;;5.39;100.00;100541.75;5039346;28;20025;-96
2023/02/23 09:16:21;;;;;;;27.57;14.23;;;;;;;5.52;100.00;100535.59;5048234;28;20050;-94
2023/02/23 09:18:48;;;;;;;22.40;14.00;;;;;;;5.64;100.00;100538.22;5035742;28;20026;-93
2023/02/23 09:21:19;;;;;;;29.17;14.77;;;;;;;5.67;100.00;100532.97;5019432;28;20026;-94
2023/02/23 09:23:49;;;;;;;30.20;13.23;;;;;;;5.62;100.00;100539.94;5033403;28;20034;-94
2023/02/23 09:26:17;;;;;;;26.37;13.63;;;;;;;5.69;100.00;100540.81;5006630;28;20026;-94
2023/02/23 09:28:49;;;;;;;25.50;14.90;;;;;;;5.72;100.00;100533.84;5023350;28;20026;-94
2023/02/23 09:31:22;;;;;;;25.23;14.23;;;;;;;5.71;100.00;100537.31;5023553;28;20029;-96
2023/02/23 09:33:50;;;;;;;27.33;14.93;;;;;;;5.85;100.00;100537.28;5023030;28;20030;-94
2023/02/23 09:36:20;;;;;;;47.27;26.93;;;;;;;5.88;100.00;100545.13;5022501;28;20057;-94
2023/02/23 09:38:53;;;;;;;40.37;23.77;;;;;;;5.92;100.00;100542.53;5021946;28;20284;-95
2023/02/23 09:41:43;;;;;;;23.07;12.60;;;;;;;5.98;100.00;100533.78;5038369;28;20026;-93
2023/02/23 09:44:25;;;;;;;25.23;14.43;;;;;;;6.13;100.00;100535.44;5015915;28;20022;-93
2023/02/23 09:46:59;;;;;;;24.57;12.93;;;;;;;6.19;100.00;100538.91;5036826;28;20026;-95
2023/02/23 09:49:28;;;;;;;23.63;13.88;;;;;;;6.14;100.00;100545.09;5022790;28;20030;-94
2023/02/23 09:51:57;;;;;;;25.63;13.50;;;;;;;6.25;100.00;100543.28;5023024;28;20034;-94
2023/02/23 09:54:31;;;;;;;22.57;13.17;;;;;;;6.19;100.00;100538.03;5014865;28;20057;-94
2023/02/23 09:57:02;;;;;;;23.67;13.65;;;;;;;6.32;100.00;100542.38;5022303;28;20025;-93
2023/02/23 09:59:30;;;;;;;22.40;12.40;;;;;;;6.25;100.00;100542.41;5035057;28;20034;-93
2023/02/23 10:02:22;;;;;;;22.73;12.83;;;;;;;6.40;100.00;100535.31;5038699;28;20037;-93
2023/02/23 10:04:58;;;;;;;18.77;11.50;;;;;;;6.42;100.00;100541.44;5035928;28;20036;-94
2023/02/23 10:07:49;;;;;;;25.53;14.50;;;;;;;6.47;100.00;100544.00;5021791;28;20097;-92
2023/02/23 10:10:40;;;;;;;24.17;14.85;;;;;;;6.66;100.00;100534.31;5038463;28;20037;-95
2023/02/23 10:13:30;;;;;;;20.67;13.97;;;;;;;6.71;100.00;100536.00;5006263;28;20026;-93
2023/02/23 10:16:21;;;;;;;23.30;14.07;;;;;;;6.76;100.00;100539.47;5017707;28;20072;-95
2023/02/23 10:18:59;;;;;;;25.17;13.30;;;;;;;6.75;100.00;100539.47;5041141;28;20023;-93
2023/02/23 10:21:30;;;;;;;36.00;26.83;;;;;;;6.88;100.00;100545.50;5005989;28;20089;-95
2023/02/23 10:24:02;;;;;;;26.17;17.00;;;;;;;6.96;100.00;100541.06;5037060;28;20034;-93
2023/02/23 10:26:38;;;;;;;27.70;15.50;;;;;;;6.98;100.00;100537.56;5038201;28;20030;-94
2023/02/23 10:29:18;;;;;;;25.00;14.43;;;;;;;7.06;99.14;100540.09;5021850;28;20037;-93
2023/02/23 10:31:50;;;;;;;24.47;13.37;;;;;;;7.05;98.25;100533.13;5022172;28;20034;-93
2023/02/23 10:34:33;;;;;;;23.80;12.50;;;;;;;7.23;97.62;100539.97;5017413;28;20026;-94
2023/02/23 10:37:05;;;;;;;24.60;14.53;;;;;;;7.33;95.13;100536.41;5036434;28;20026;-94
2023/02/23 10:39:33;;;;;;;23.90;13.90;;;;;;;7.34;96.24;100535.50;5021011;28;20036;-93
2023/02/23 10:42:06;;;;;;;21.97;14.10;;;;;;;7.35;97.24;100532.00;5003427;28;20046;-95
2023/02/23 10:44:33;;;;;;;23.80;14.03;;;;;;;7.34;96.72;100538.13;5021567;28;20053;-93
2023/02/23 10:47:22;;;;;;;25.97;13.87;;;;;;;7.28;97.42;100531.16;5053884;28;20025;-93
2023/02/23 10:49:54;;;;;;;21.00;12.47;;;;;;;7.25;97.97;100539.09;5037865;28;20026;-94
2023/02/23 10:52:28;;;;;;;21.27;13.17;;;;;;;7.34;96.95;100530.25;5037684;28;20080;-94
2023/02/23 10:55:00;;;;;;;24.00;13.70;;;;;;;7.41;99.19;100534.56;5037173;28;20050;-94
2023/02/23 10:57:40;;;;;;;19.77;12.80;;;;;;;7.48;99.14;100530.09;5048048;28;20049;-96
2023/02/23 11:00:07;;;;;;;25.77;12.43;;;;;;;7.56;97.69;100536.16;5037580;28;20026;-94
2023/02/23 11:02:36;;;;;;;28.00;15.30;;;;;;;7.51;98.31;100522.19;5054230;28;20076;-93
2023/02/23 11:05:05;;;;;;;33.87;14.57;;;;;;;7.61;100.00;100519.44;5021728;28;20030;-93
2023/02/23 11:07:35;;;;;;;27.80;15.67;;;;;;;7.66;99.46;100526.44;5020291;28;20038;-94
2023/02/23 11:10:24;;;;;;;24.03;15.50;;;;;;;7.59;100.00;100515.97;5049684;28;20026;-94
2023/02/23 11:12:51;;;;;;;28.47;15.83;;;;;;;7.73;100.00;100517.56;5018014;28;20033;-95
2023/02/23 11:15:28;;;;;;;29.27;16.20;;;;;;;7.77;100.00;100517.53;5001754;28;20041;-93
2023/02/23 11:18:21;;;;;;;30.77;16.93;;;;;;;7.88;99.48;100512.13;4996091;28;20026;-94
2023/02/23 11:20:48;;;;;;;30.20;16.33;;;;;;;7.84;100.00;100519.22;5037331;28;20022;-94
2023/02/23 11:23:30;;;;;;;28.23;17.20;;;;;;;7.87;100.00;100507.78;5021082;28;20048;-94
2023/02/23 11:26:37;;;;;;;28.93;16.83;;;;;;;7.95;100.00;100500.66;5022016;28;20030;-93
2023/02/23 11:29:15;;;;;;;26.50;14.70;;;;;;;7.95;100.00;100498.03;5019603;28;20038;-93
2023/02/23 11:31:56;;;;;;;27.43;16.00;;;;;;;8.03;99.26;100504.06;5037262;28;20102;-96
2023/02/23 11:34:40;;;;;;;30.80;15.67;;;;;;;8.06;99.51;100497.88;5021624;28;20049;-94
2023/02/23 11:37:37;;;;;;;27.37;15.37;;;;;;;8.07;99.18;100499.63;5021185;28;20061;-94
2023/02/23 11:40:23;;;;;;;31.20;14.83;;;;;;;8.11;99.54;100490.81;5030392;28;20057;-94
2023/02/23 11:43:04;;;;;;;30.83;14.90;;;;;;;8.15;99.60;100481.97;5012693;28;20030;-94
2023/02/23 11:45:37;;;;;;;25.40;14.63;;;;;;;8.14;100.00;100488.13;5017412;28;20101;-94
2023/02/23 11:48:24;;;;;;;31.50;15.97;;;;;;;8.12;100.00;100485.53;5013761;28;20022;-93
2023/02/23 11:51:14;;;;;;;27.47;15.93;;;;;;;8.15;100.00;100487.22;5018485;28;20033;-94
2023/02/23 11:54:09;;;;;;;30.03;15.97;;;;;;;8.22;99.59;100480.13;5008615;28;20026;-92
2023/02/23 11:56:54;;;;;;;26.97;15.23;;;;;;;8.10;97.66;100478.56;5016996;28;20105;-93
2023/02/23 11:59:28;;;;;;;33.10;15.23;;;;;;;7.97;99.81;100483.09;5030420;28;20026;-93
2023/02/23 12:02:47;;;;;;;;;;;;;;;;;;;;;
2023/02/23 12:06:09;;;;;;;25.97;15.03;;;;;;;8.01;100.00;100470.78;5033972;28;20052;-96
2023/02/23 12:08:46;;;;;;;26.63;16.03;;;;;;;8.06;100.00;100468.94;5002930;28;20029;-94
2023/02/23 12:11:21;;;;;;;29.97;15.20;;;;;;;8.02;100.00;100462.88;5030577;28;20061;-94
2023/02/23 12:13:59;;;;;;;29.10;15.93;;;;;;;8.16;99.16;100474.09;5032794;28;20060;-93
2023/02/23 12:16:50;;;;;;;28.13;15.60;;;;;;;8.16;100.00;100466.19;5003784;28;20025;-94
2023/02/23 12:19:31;;;;;;;23.17;14.37;;;;;;;8.11;100.00;100465.38;5050155;28;20029;-94
2023/02/23 12:22:17;;;;;;;30.10;14.77;;;;;;;8.13;100.00;100460.06;5007292;28;20048;-94
2023/02/23 12:25:17;;;;;;;26.60;15.00;;;;;;;8.35;99.52;100461.56;5019031;28;20037;-93
2023/02/23 12:28:05;;;;;;;28.20;15.57;;;;;;;8.33;98.90;100458.06;5002408;28;20026;-94
2023/02/23 12:30:53;;;;;;;26.88;14.38;;;;;;;8.16;100.00;100463.56;5000468;28;20061;-93
2023/02/23 12:33:53;;;;;;;;;;;;;;;;;;;;;
2023/02/23 12:36:30;;;;;;;27.40;14.20;;;;;;;8.10;100.00;100462.75;5049218;28;20031;-94
2023/02/23 12:39:20;;;;;;;27.40;14.03;;;;;;;8.15;100.00;100458.28;5016994;28;20097;-92
2023/02/23 12:42:12;;;;;;;24.00;14.67;;;;;;;8.20;100.00;100456.47;5045226;28;20038;-94
2023/02/23 12:45:10;;;;;;;;;;;;;;;;;;;;;
2023/02/23 12:47:51;;;;;;;28.63;15.30;;;;;;;8.26;100.00;100445.88;5024133;28;20065;-93
2023/02/23 12:50:34;;;;;;;28.13;15.30;;;;;;;8.25;100.00;100438.88;5029143;28;20038;-93
2023/02/23 12:53:26;;;;;;;22.10;14.80;;;;;;;8.26;100.00;100435.34;5034880;28;20042;-94
2023/02/23 12:56:20;;;;;;;26.10;14.80;;;;;;;8.30;100.00;100439.66;5025960;28;20027;-94
2023/02/23 12:59:15;;;;;;;28.70;17.80;;;;;;;8.36;100.00;100442.25;5020716;28;20089;-94
2023/02/23 13:02:15;;;;;;;25.10;14.43;;;;;;;8.46;100.00;100435.06;5015349;28;20049;-94
2023/02/23 13:04:57;;;;;;;29.20;16.50;;;;;;;8.56;100.00;100430.53;4986793;28;20034;-94